Knob Noster, Missouri
Current Conditions -  °F | °C
As of 11:58 PM on Wednesday 28 Jan 2015 (Local Time) from KSZL Reporting Station
Clear Clear  
Wind Chill: 57°   Ceiling: Unl
Heat Index: 57°   Visibility: 10mi
Dew Point: 39°   Wind: 13mph
Humidity: 51%   Direction: 270°W
Pressure: 29.79"   Gusts: NA
Location:  38.77°N, 93.56°W
Report Text: KSZL 290558Z AUTO 27011KT 10SM CLR 14/04 A2979 RMK AO2 SLP088 T01410041 10154 20107 53006 $
Loading
Personal Weather Stations






























Interactive Weather Map New forecast layout! Learn more

10-Day Weather Forecast

Advertisements
Track Severe Weather on mobile